Time;durP1;ratioP1;P1;durP2;ratioP2;P2;SDS_P1;SDS_P2;PMS_P1;PMS_P2;Temp;Humidity;BMP_temperature;BMP_pressure;BME280_temperature;BME280_humidity;BME280_pressure;Samples;Min_cycle;Max_cycle;Signal;HPM_P1;HPM_P2
2022/01/10 00:00:43;;;;;;;;;;;1.50;99.90;;;;;;5086500;28;20148;-74
2022/01/10 00:03:10;;;;;;;;;;;1.50;99.90;;;;;;5086504;28;19920;-74
2022/01/10 00:05:36;;;;;;;;;;;1.50;99.90;;;;;;5085845;28;19944;-75
2022/01/10 00:08:04;;;;;;;;;;;1.50;99.90;;;;;;5086452;28;19924;-74
2022/01/10 00:10:32;;;;;;;;;;;1.50;99.90;;;;;;5086389;28;19920;-74
2022/01/10 00:12:59;;;;;;;;;;;1.50;99.90;;;;;;5085901;28;20205;-75
2022/01/10 00:15:26;;;;;;;;;;;1.50;99.90;;;;;;5085947;28;19926;-74
2022/01/10 00:17:52;;;;;;;;;;;1.50;99.90;;;;;;5119865;28;20080;-74
2022/01/10 00:20:19;;;;;;;;;;;1.50;99.90;;;;;;5126642;28;19919;-74
2022/01/10 00:22:48;;;;;;;;;;;1.50;99.90;;;;;;5126744;28;19926;-74
2022/01/10 00:25:16;;;;;;;;;;;1.50;99.90;;;;;;5126146;28;20215;-74
2022/01/10 00:27:44;;;;;;;;;;;1.50;99.90;;;;;;5126942;28;19920;-74
2022/01/10 00:30:11;;;;;;;;;;;1.50;99.90;;;;;;5126163;28;19926;-74
2022/01/10 00:32:38;;;;;;;;;;;1.50;99.90;;;;;;5126268;28;20215;-75
2022/01/10 00:35:05;;;;;;;;;;;1.50;99.90;;;;;;5126012;28;20207;-74
2022/01/10 00:37:33;;;;;;;;;;;1.50;99.90;;;;;;5126490;28;19920;-74
2022/01/10 00:39:59;;;;;;;;;;;1.50;99.90;;;;;;5126354;28;19982;-74
2022/01/10 00:42:26;;;;;;;;;;;1.50;99.90;;;;;;5126170;28;20225;-74
2022/01/10 00:44:55;;;;;;;;;;;1.40;99.90;;;;;;5125744;28;20199;-73
2022/01/10 00:47:22;;;;;;;;;;;1.40;99.90;;;;;;5109360;28;19920;-75
2022/01/10 00:49:48;;;;;;;;;;;1.40;99.90;;;;;;5125974;28;20211;-73
2022/01/10 00:52:15;;;;;;;;;;;1.30;99.90;;;;;;5120667;28;20108;-74
2022/01/10 00:54:42;;;;;;;;;;;1.40;99.90;;;;;;5105569;28;19920;-74
2022/01/10 00:57:08;;;;;;;;;;;1.30;99.90;;;;;;5105376;28;19927;-74
2022/01/10 00:59:35;;;;;;;;;;;1.30;99.90;;;;;;5104001;28;19926;-74
2022/01/10 01:02:03;;;;;;;;;;;1.30;99.90;;;;;;5085371;28;19927;-74
2022/01/10 01:04:29;;;;;;;;;;;1.40;99.90;;;;;;5085032;28;19926;-75
2022/01/10 01:06:56;;;;;;;;;;;1.40;99.90;;;;;;5087907;28;19932;-74
2022/01/10 01:09:27;;;;;;;;;;;1.40;99.90;;;;;;5105509;28;19920;-74
2022/01/10 01:12:13;;;;;;;;;;;1.30;99.90;;;;;;5105196;28;19924;-74
2022/01/10 01:14:53;;;;;;;;;;;1.30;99.90;;;;;;5104985;28;19920;-75
2022/01/10 01:17:35;;;;;;;;;;;1.30;99.90;;;;;;5116453;28;19973;-74
2022/01/10 01:20:28;;;;;;;;;;;1.30;99.90;;;;;;5125364;28;19920;-74
2022/01/10 01:25:38;;;;;;;;;;;1.30;99.90;;;;;;5125117;28;19954;-74
2022/01/10 01:28:05;;;;;;;;;;;1.30;99.90;;;;;;5125173;28;20234;-74
2022/01/10 01:30:31;;;;;;;;;;;1.30;99.90;;;;;;5125267;28;19926;-74
2022/01/10 01:32:59;;;;;;;;;;;1.30;99.90;;;;;;5125088;28;19919;-73
2022/01/10 01:35:27;;;;;;;;;;;1.30;99.90;;;;;;5123634;28;19926;-74
2022/01/10 01:37:55;;;;;;;;;;;1.30;99.90;;;;;;5104982;28;19983;-75
2022/01/10 01:40:22;;;;;;;;;;;1.30;99.90;;;;;;5104250;28;19965;-74
2022/01/10 01:42:49;;;;;;;;;;;1.30;99.90;;;;;;5104445;28;19983;-74
2022/01/10 01:45:16;;;;;;;;;;;1.30;99.90;;;;;;5104063;28;19920;-74
2022/01/10 01:47:43;;;;;;;;;;;1.30;99.90;;;;;;5104826;28;20208;-74
2022/01/10 01:50:11;;;;;;;;;;;1.30;99.90;;;;;;5104721;28;19927;-74
2022/01/10 01:52:38;;;;;;;;;;;1.30;99.90;;;;;;5104603;28;19987;-73
2022/01/10 01:55:05;;;;;;;;;;;1.30;99.90;;;;;;5103989;28;19924;-74
2022/01/10 01:57:32;;;;;;;;;;;1.30;99.90;;;;;;5104515;28;19920;-74
2022/01/10 01:59:59;;;;;;;;;;;1.30;99.90;;;;;;5104574;28;19920;-74
2022/01/10 02:02:25;;;;;;;;;;;1.30;99.90;;;;;;5104500;28;19920;-74
2022/01/10 02:04:52;;;;;;;;;;;1.30;99.90;;;;;;5093792;28;19921;-74
2022/01/10 02:07:20;;;;;;;;;;;1.30;99.90;;;;;;5084154;28;19936;-73
2022/01/10 02:09:46;;;;;;;;;;;1.30;99.90;;;;;;5084102;28;19921;-75
2022/01/10 02:12:13;;;;;;;;;;;1.30;99.90;;;;;;5083992;28;20204;-74
2022/01/10 02:14:42;;;;;;;;;;;1.30;99.90;;;;;;5083909;28;19921;-74
2022/01/10 02:17:12;;;;;;;;;;;1.30;99.90;;;;;;5100345;28;19920;-74
2022/01/10 02:19:38;;;;;;;;;;;1.20;99.90;;;;;;5124660;28;19920;-73
2022/01/10 02:22:06;;;;;;;;;;;1.20;99.90;;;;;;5124479;28;19920;-74
2022/01/10 02:24:33;;;;;;;;;;;1.20;99.90;;;;;;5124277;28;19942;-74
2022/01/10 02:26:59;;;;;;;;;;;1.20;99.90;;;;;;5124366;28;19920;-74
2022/01/10 02:29:26;;;;;;;;;;;1.20;99.90;;;;;;5124465;28;19923;-74
2022/01/10 02:31:53;;;;;;;;;;;1.20;99.90;;;;;;5124509;28;19920;-74
2022/01/10 02:34:23;;;;;;;;;;;1.20;99.90;;;;;;5110642;28;19920;-74
2022/01/10 02:36:50;;;;;;;;;;;1.20;99.90;;;;;;5086162;28;19983;-74
2022/01/10 02:39:20;;;;;;;;;;;1.20;99.90;;;;;;5083911;28;19927;-74
2022/01/10 02:41:46;;;;;;;;;;;1.20;99.90;;;;;;5083807;28;19921;-74
2022/01/10 02:44:15;;;;;;;;;;;1.20;99.90;;;;;;5083546;28;19928;-75
2022/01/10 02:46:42;;;;;;;;;;;1.20;99.90;;;;;;5083420;28;19924;-74
2022/01/10 02:49:10;;;;;;;;;;;1.20;99.90;;;;;;5098856;28;19921;-74
2022/01/10 02:51:37;;;;;;;;;;;1.10;99.90;;;;;;5093812;28;19927;-73
2022/01/10 02:54:03;;;;;;;;;;;1.10;99.90;;;;;;5087548;28;19920;-74
2022/01/10 02:56:31;;;;;;;;;;;1.20;99.90;;;;;;5087500;28;19926;-74
2022/01/10 02:58:58;;;;;;;;;;;1.20;99.90;;;;;;5087769;28;19927;-74
2022/01/10 03:01:24;;;;;;;;;;;1.10;99.90;;;;;;5087576;28;19943;-74
2022/01/10 03:03:51;;;;;;;;;;;1.20;99.90;;;;;;5086980;28;20239;-74
2022/01/10 03:06:18;;;;;;;;;;;1.20;99.90;;;;;;5087469;28;19920;-74
2022/01/10 03:08:44;;;;;;;;;;;1.20;99.90;;;;;;5087452;28;19921;-74
2022/01/10 03:11:11;;;;;;;;;;;1.20;99.90;;;;;;5087371;28;19926;-74
2022/01/10 03:13:39;;;;;;;;;;;1.20;99.90;;;;;;5086843;28;19920;-74
2022/01/10 03:16:05;;;;;;;;;;;1.10;99.90;;;;;;5092614;28;20124;-74
2022/01/10 03:18:32;;;;;;;;;;;1.10;99.90;;;;;;5124949;28;19919;-74
2022/01/10 03:20:58;;;;;;;;;;;1.10;99.90;;;;;;5128114;28;19926;-74
2022/01/10 03:23:25;;;;;;;;;;;1.10;99.90;;;;;;5128056;28;19924;-74
2022/01/10 03:25:51;;;;;;;;;;;1.10;99.90;;;;;;5127615;28;20085;-74
2022/01/10 03:28:18;;;;;;;;;;;1.10;99.90;;;;;;5127683;28;19964;-74
2022/01/10 03:30:46;;;;;;;;;;;1.10;99.90;;;;;;5119617;28;19927;-74
2022/01/10 03:33:13;;;;;;;;;;;1.10;99.90;;;;;;5098446;28;19920;-74
2022/01/10 03:35:39;;;;;;;;;;;1.10;99.90;;;;;;5106645;28;19920;-74
2022/01/10 03:38:06;;;;;;;;;;;1.10;99.90;;;;;;5107154;28;19920;-74
2022/01/10 03:40:33;;;;;;;;;;;1.10;99.90;;;;;;5107183;28;19920;-73
2022/01/10 03:42:59;;;;;;;;;;;1.10;99.90;;;;;;5107257;28;19920;-74
2022/01/10 03:45:26;;;;;;;;;;;1.10;99.90;;;;;;5106833;28;19920;-74
2022/01/10 03:47:54;;;;;;;;;;;1.20;99.90;;;;;;5107134;28;19920;-74
2022/01/10 03:50:20;;;;;;;;;;;1.10;99.90;;;;;;5121271;28;19926;-74
2022/01/10 03:52:47;;;;;;;;;;;1.10;99.90;;;;;;5127075;28;20019;-74
2022/01/10 03:55:13;;;;;;;;;;;1.20;99.90;;;;;;5126979;28;19919;-74
2022/01/10 03:57:40;;;;;;;;;;;1.20;99.90;;;;;;5118017;28;19926;-74
2022/01/10 04:00:08;;;;;;;;;;;1.20;99.90;;;;;;5106841;28;19920;-74
2022/01/10 04:02:36;;;;;;;;;;;1.10;99.90;;;;;;5106681;28;19920;-74
2022/01/10 04:05:05;;;;;;;;;;;1.10;99.90;;;;;;5105764;28;19920;-74
2022/01/10 04:07:31;;;;;;;;;;;1.10;99.90;;;;;;5105626;28;20235;-74
2022/01/10 04:09:58;;;;;;;;;;;1.10;99.90;;;;;;5106769;28;19927;-74
2022/01/10 04:12:25;;;;;;;;;;;1.10;99.90;;;;;;5106511;28;19920;-74
2022/01/10 04:14:52;;;;;;;;;;;1.10;99.90;;;;;;5101962;28;19942;-74
2022/01/10 04:17:18;;;;;;;;;;;1.10;99.90;;;;;;5106530;28;20089;-74
2022/01/10 04:19:45;;;;;;;;;;;1.10;99.90;;;;;;5106057;28;19970;-74
2022/01/10 04:22:13;;;;;;;;;;;1.10;99.90;;;;;;5106272;28;19920;-73
2022/01/10 04:24:39;;;;;;;;;;;1.10;99.90;;;;;;5105791;28;20212;-73
2022/01/10 04:27:06;;;;;;;;;;;1.00;99.90;;;;;;5106172;28;19920;-74
2022/01/10 04:29:33;;;;;;;;;;;1.00;99.90;;;;;;5106312;28;20112;-74
2022/01/10 04:32:00;;;;;;;;;;;1.00;99.90;;;;;;5106289;28;19926;-73
2022/01/10 04:34:27;;;;;;;;;;;1.00;99.90;;;;;;5098693;28;20212;-74
2022/01/10 04:36:53;;;;;;;;;;;1.00;99.90;;;;;;5085738;28;19924;-74
2022/01/10 04:39:21;;;;;;;;;;;1.00;99.90;;;;;;5085819;28;20009;-73
2022/01/10 04:41:48;;;;;;;;;;;1.00;99.90;;;;;;5085714;28;19950;-74
2022/01/10 04:44:15;;;;;;;;;;;1.00;99.90;;;;;;5088055;28;19929;-74
2022/01/10 04:46:41;;;;;;;;;;;1.00;99.90;;;;;;5099701;28;20208;-74
2022/01/10 04:49:14;;;;;;;;;;;1.00;99.90;;;;;;5108514;28;19934;-74
2022/01/10 04:51:41;;;;;;;;;;;1.00;99.90;;;;;;5126241;28;20015;-74
2022/01/10 04:54:07;;;;;;;;;;;1.00;99.90;;;;;;5117953;28;19920;-74
2022/01/10 04:56:35;;;;;;;;;;;1.00;99.90;;;;;;5105619;28;19920;-74
2022/01/10 04:59:02;;;;;;;;;;;1.00;99.90;;;;;;5105417;28;20112;-74
2022/01/10 05:01:29;;;;;;;;;;;1.00;99.90;;;;;;5105177;28;19926;-74
2022/01/10 05:03:55;;;;;;;;;;;1.00;99.90;;;;;;5105330;28;19924;-74
2022/01/10 05:06:22;;;;;;;;;;;1.00;99.90;;;;;;5105438;28;19923;-74
2022/01/10 05:08:48;;;;;;;;;;;1.00;99.90;;;;;;5093010;28;20094;-73
2022/01/10 05:11:16;;;;;;;;;;;1.10;99.90;;;;;;5084984;28;19943;-74
2022/01/10 05:13:44;;;;;;;;;;;1.00;99.90;;;;;;5084051;28;20163;-74
2022/01/10 05:16:12;;;;;;;;;;;1.00;99.90;;;;;;5084016;28;19921;-74
2022/01/10 05:18:39;;;;;;;;;;;1.00;99.90;;;;;;5093042;28;19987;-73
2022/01/10 05:21:05;;;;;;;;;;;1.10;99.90;;;;;;5121035;28;20160;-73
2022/01/10 05:23:32;;;;;;;;;;;1.10;99.90;;;;;;5125471;28;19920;-74
2022/01/10 05:25:59;;;;;;;;;;;1.00;99.90;;;;;;5125264;28;20235;-73
2022/01/10 05:28:25;;;;;;;;;;;1.00;99.90;;;;;;5122017;28;19954;-73
2022/01/10 05:30:55;;;;;;;;;;;1.00;99.90;;;;;;5105174;28;19926;-73
2022/01/10 05:33:22;;;;;;;;;;;1.00;99.90;;;;;;5105082;28;19942;-73
2022/01/10 05:35:48;;;;;;;;;;;1.00;99.90;;;;;;5104739;28;19924;-73
2022/01/10 05:38:18;;;;;;;;;;;1.00;99.90;;;;;;5104959;28;19920;-73
2022/01/10 05:40:45;;;;;;;;;;;1.00;99.90;;;;;;5089182;28;19927;-73
2022/01/10 05:43:11;;;;;;;;;;;1.00;99.90;;;;;;5084392;28;19921;-73
2022/01/10 05:45:38;;;;;;;;;;;1.00;99.90;;;;;;5083849;28;19927;-73
2022/01/10 05:48:12;;;;;;;;;;;1.00;99.90;;;;;;5085250;28;19921;-73
2022/01/10 05:50:41;;;;;;;;;;;1.00;99.90;;;;;;5092972;28;19923;-73
2022/01/10 05:53:08;;;;;;;;;;;1.00;99.90;;;;;;5125085;28;19954;-75
2022/01/10 05:55:36;;;;;;;;;;;1.00;99.90;;;;;;5094872;28;19927;-74
2022/01/10 05:58:03;;;;;;;;;;;0.90;99.90;;;;;;5084017;28;20230;-74
2022/01/10 06:00:30;;;;;;;;;;;0.90;99.90;;;;;;5093842;28;20123;-74
2022/01/10 06:02:57;;;;;;;;;;;1.00;99.90;;;;;;5102837;28;19920;-74
2022/01/10 06:05:41;;;;;;;;;;;0.90;99.90;;;;;;5104456;28;19920;-74
2022/01/10 06:08:08;;;;;;;;;;;0.90;99.90;;;;;;5104233;28;19930;-74
2022/01/10 06:10:35;;;;;;;;;;;0.90;99.90;;;;;;5103930;28;19959;-74
2022/01/10 06:13:02;;;;;;;;;;;0.90;99.90;;;;;;5103590;28;19942;-72
2022/01/10 06:15:28;;;;;;;;;;;0.90;99.90;;;;;;5103574;28;19920;-74
2022/01/10 06:17:55;;;;;;;;;;;1.00;99.90;;;;;;5083106;28;19924;-74
2022/01/10 06:20:21;;;;;;;;;;;1.00;99.90;;;;;;5100148;28;20100;-74
2022/01/10 06:22:50;;;;;;;;;;;1.00;99.90;;;;;;5095821;28;19920;-72
2022/01/10 06:25:18;;;;;;;;;;;1.00;99.90;;;;;;5093596;28;19920;-74
2022/01/10 06:27:45;;;;;;;;;;;1.00;99.90;;;;;;5103141;28;20239;-73
2022/01/10 06:30:11;;;;;;;;;;;1.00;99.90;;;;;;5104195;28;19942;-73
2022/01/10 06:32:38;;;;;;;;;;;1.00;99.90;;;;;;5103951;28;19920;-75
2022/01/10 06:35:05;;;;;;;;;;;1.10;99.90;;;;;;5101420;28;19942;-73
2022/01/10 06:37:32;;;;;;;;;;;1.10;99.90;;;;;;5102174;28;19973;-72
2022/01/10 06:40:00;;;;;;;;;;;1.10;99.90;;;;;;5103024;28;19920;-72
2022/01/10 06:42:26;;;;;;;;;;;1.20;99.90;;;;;;5103093;28;19928;-72
2022/01/10 06:44:53;;;;;;;;;;;1.20;99.90;;;;;;5102728;28;19926;-73
2022/01/10 06:47:19;;;;;;;;;;;1.20;99.90;;;;;;5100444;28;19920;-72
2022/01/10 06:49:46;;;;;;;;;;;1.30;99.90;;;;;;5103319;28;19983;-72
2022/01/10 06:52:12;;;;;;;;;;;1.30;99.90;;;;;;5103432;28;19942;-72
2022/01/10 06:54:39;;;;;;;;;;;1.30;99.90;;;;;;5103172;28;19942;-72
2022/01/10 06:57:07;;;;;;;;;;;1.30;99.90;;;;;;5103355;28;19920;-72
2022/01/10 06:59:34;;;;;;;;;;;1.30;99.90;;;;;;5103806;28;19920;-72
2022/01/10 07:02:00;;;;;;;;;;;1.30;99.90;;;;;;5089058;28;19921;-72
2022/01/10 07:04:27;;;;;;;;;;;1.40;99.90;;;;;;5082627;28;19924;-73
2022/01/10 07:06:54;;;;;;;;;;;1.40;99.90;;;;;;5086845;28;20262;-72
2022/01/10 07:09:21;;;;;;;;;;;1.40;99.90;;;;;;5093511;28;19919;-72
2022/01/10 07:11:47;;;;;;;;;;;1.50;99.90;;;;;;5101291;28;19924;-72
2022/01/10 07:14:17;;;;;;;;;;;1.50;99.90;;;;;;5101134;28;19984;-72
2022/01/10 07:16:44;;;;;;;;;;;1.50;99.90;;;;;;5101482;28;20117;-72
2022/01/10 07:19:10;;;;;;;;;;;1.40;99.90;;;;;;5102094;28;19954;-72
2022/01/10 07:21:39;;;;;;;;;;;1.40;99.90;;;;;;5100480;28;19920;-72
2022/01/10 07:24:06;;;;;;;;;;;1.40;99.90;;;;;;5102765;28;20212;-72
2022/01/10 07:26:33;;;;;;;;;;;1.40;99.90;;;;;;5103076;28;19920;-72
2022/01/10 07:28:59;;;;;;;;;;;1.40;99.90;;;;;;5103012;28;20134;-72
2022/01/10 07:31:27;;;;;;;;;;;1.40;99.90;;;;;;5103444;28;20245;-72
2022/01/10 07:33:54;;;;;;;;;;;1.30;99.90;;;;;;5085111;28;19944;-72
2022/01/10 07:36:21;;;;;;;;;;;1.30;99.90;;;;;;5107756;28;20211;-72
2022/01/10 07:38:48;;;;;;;;;;;1.30;99.90;;;;;;5124783;28;19919;-72
2022/01/10 07:41:14;;;;;;;;;;;1.30;99.90;;;;;;5127012;28;19927;-72
2022/01/10 07:43:41;;;;;;;;;;;1.20;99.90;;;;;;5126785;28;19926;-72
2022/01/10 07:46:08;;;;;;;;;;;1.20;99.90;;;;;;5126697;28;20122;-72
2022/01/10 07:48:38;;;;;;;;;;;1.20;99.90;;;;;;5107654;28;20230;-72
2022/01/10 07:51:08;;;;;;;;;;;1.20;99.90;;;;;;5100798;28;19935;-73
2022/01/10 07:53:35;;;;;;;;;;;1.10;99.90;;;;;;5106852;28;19942;-74
2022/01/10 07:56:02;;;;;;;;;;;1.10;99.90;;;;;;5106627;28;19920;-72
2022/01/10 07:58:29;;;;;;;;;;;1.00;99.90;;;;;;5104213;28;19920;-74
2022/01/10 08:00:56;;;;;;;;;;;1.50;99.90;;;;;;5106228;28;19958;-74
2022/01/10 08:03:23;;;;;;;;;;;1.00;99.90;;;;;;5105817;28;19920;-72
2022/01/10 08:05:50;;;;;;;;;;;1.00;99.90;;;;;;5105851;28;19920;-72
2022/01/10 08:08:17;;;;;;;;;;;0.90;99.90;;;;;;5105904;28;19934;-72
2022/01/10 08:10:44;;;;;;;;;;;0.90;99.90;;;;;;5093324;28;20205;-73
2022/01/10 08:13:10;;;;;;;;;;;0.90;99.90;;;;;;5086148;28;19928;-72
2022/01/10 08:15:37;;;;;;;;;;;0.80;99.90;;;;;;5085847;28;19926;-72
2022/01/10 08:18:04;;;;;;;;;;;0.90;99.90;;;;;;5100714;28;19927;-72
2022/01/10 08:20:31;;;;;;;;;;;0.90;99.90;;;;;;5106428;28;19927;-74
2022/01/10 08:22:59;;;;;;;;;;;0.90;99.90;;;;;;5105891;28;20093;-72
2022/01/10 08:25:25;;;;;;;;;;;0.90;99.90;;;;;;5094587;28;20112;-72
2022/01/10 08:27:52;;;;;;;;;;;0.80;99.90;;;;;;5084705;28;20268;-72
2022/01/10 08:30:19;;;;;;;;;;;0.80;99.90;;;;;;5085337;28;20201;-72
2022/01/10 08:32:50;;;;;;;;;;;0.80;99.90;;;;;;5089962;28;19983;-73
2022/01/10 08:35:16;;;;;;;;;;;0.80;99.90;;;;;;5105772;28;19958;-74
2022/01/10 08:37:43;;;;;;;;;;;0.80;99.90;;;;;;5105240;28;19994;-72
2022/01/10 08:40:12;;;;;;;;;;;0.80;99.90;;;;;;5104773;28;19955;-72
2022/01/10 08:42:39;;;;;;;;;;;0.80;99.90;;;;;;5104398;28;20025;-73
2022/01/10 08:45:08;;;;;;;;;;;0.70;99.90;;;;;;5085300;28;19927;-73
2022/01/10 08:47:34;;;;;;;;;;;0.80;99.90;;;;;;5084954;28;19920;-72
2022/01/10 08:50:01;;;;;;;;;;;0.80;99.90;;;;;;5085067;28;19927;-72
2022/01/10 08:52:27;;;;;;;;;;;0.90;99.90;;;;;;5098229;28;20263;-72
2022/01/10 08:54:54;;;;;;;;;;;0.90;99.90;;;;;;5105100;28;19987;-72
2022/01/10 08:57:22;;;;;;;;;;;0.90;99.90;;;;;;5101281;28;19932;-72
2022/01/10 08:59:48;;;;;;;;;;;0.90;99.90;;;;;;5088151;28;20208;-73
2022/01/10 09:02:15;;;;;;;;;;;1.00;99.90;;;;;;5085166;28;20112;-74
2022/01/10 09:04:42;;;;;;;;;;;1.00;99.90;;;;;;5094524;28;19920;-74
2022/01/10 09:07:09;;;;;;;;;;;1.00;99.90;;;;;;5105132;28;19920;-72
2022/01/10 09:09:36;;;;;;;;;;;1.00;99.90;;;;;;5104643;28;19995;-72
2022/01/10 09:12:02;;;;;;;;;;;1.00;99.90;;;;;;5104887;28;19924;-72
2022/01/10 09:14:30;;;;;;;;;;;1.00;99.90;;;;;;5094219;28;19927;-74
2022/01/10 09:16:57;;;;;;;;;;;1.00;99.90;;;;;;5085764;28;19920;-72
2022/01/10 09:19:23;;;;;;;;;;;1.10;99.90;;;;;;5091256;28;19924;-72
2022/01/10 09:21:50;;;;;;;;;;;1.10;99.90;;;;;;5086662;28;19927;-74
2022/01/10 09:24:17;;;;;;;;;;;1.10;99.90;;;;;;5084346;28;20196;-73
2022/01/10 09:26:43;;;;;;;;;;;1.10;99.90;;;;;;5084556;28;19921;-72
2022/01/10 09:29:10;;;;;;;;;;;1.20;99.90;;;;;;5084306;28;19927;-72
2022/01/10 09:31:38;;;;;;;;;;;1.20;99.90;;;;;;5083995;28;19921;-72
2022/01/10 09:34:04;;;;;;;;;;;1.30;99.90;;;;;;5084599;28;19921;-72
2022/01/10 09:36:32;;;;;;;;;;;1.30;99.90;;;;;;5096587;28;20235;-72
2022/01/10 09:38:59;;;;;;;;;;;1.40;99.90;;;;;;5103774;28;19942;-72
2022/01/10 09:41:27;;;;;;;;;;;1.50;99.90;;;;;;5104316;28;19920;-72
2022/01/10 09:43:56;;;;;;;;;;;1.50;99.90;;;;;;5103883;28;19987;-72
2022/01/10 09:46:23;;;;;;;;;;;1.60;99.90;;;;;;5104174;28;20204;-72
2022/01/10 09:48:51;;;;;;;;;;;1.60;99.90;;;;;;5104000;28;19920;-72
2022/01/10 09:51:17;;;;;;;;;;;1.70;99.90;;;;;;5091682;28;19927;-72
2022/01/10 09:53:44;;;;;;;;;;;1.80;99.90;;;;;;5084114;28;19927;-73
2022/01/10 09:56:10;;;;;;;;;;;1.80;99.90;;;;;;5087973;28;19921;-72
2022/01/10 09:58:37;;;;;;;;;;;1.80;99.90;;;;;;5102240;28;20211;-72
2022/01/10 10:01:04;;;;;;;;;;;2.00;99.90;;;;;;5102164;28;20219;-72
2022/01/10 10:03:30;;;;;;;;;;;2.00;99.90;;;;;;5103507;28;19927;-72
2022/01/10 10:05:59;;;;;;;;;;;2.10;99.90;;;;;;5087515;28;19920;-72
2022/01/10 10:08:27;;;;;;;;;;;2.20;99.90;;;;;;5083874;28;19958;-72
2022/01/10 10:10:54;;;;;;;;;;;2.20;99.90;;;;;;5083331;28;19942;-72
2022/01/10 10:13:21;;;;;;;;;;;2.20;99.90;;;;;;5083349;28;19927;-72
2022/01/10 10:15:48;;;;;;;;;;;2.30;99.90;;;;;;5111997;28;20230;-72
2022/01/10 10:18:15;;;;;;;;;;;2.40;99.90;;;;;;5107788;28;19942;-72
2022/01/10 10:20:42;;;;;;;;;;;2.40;99.90;;;;;;5104042;28;19927;-73
2022/01/10 10:23:14;;;;;;;;;;;2.40;99.90;;;;;;5104189;28;19920;-72
2022/01/10 10:25:45;;;;;;;;;;;2.50;99.90;;;;;;5103033;28;19992;-72
2022/01/10 10:28:13;;;;;;;;;;;2.60;99.90;;;;;;5103531;28;20003;-72
2022/01/10 10:30:39;;;;;;;;;;;2.70;99.90;;;;;;5089853;28;20242;-72
2022/01/10 10:33:13;;;;;;;;;;;2.80;99.90;;;;;;5083115;28;20205;-72
2022/01/10 10:35:40;;;;;;;;;;;2.90;99.90;;;;;;5085656;28;19928;-72
2022/01/10 10:38:07;;;;;;;;;;;3.00;99.90;;;;;;5084115;28;19927;-73
2022/01/10 10:40:40;;;;;;;;;;;3.10;99.90;;;;;;5083001;28;20116;-73
2022/01/10 10:43:07;;;;;;;;;;;3.20;99.90;;;;;;5085905;28;19924;-72
2022/01/10 10:45:34;;;;;;;;;;;3.40;99.90;;;;;;5083554;28;19924;-73
2022/01/10 10:48:05;;;;;;;;;;;3.50;99.90;;;;;;5083406;28;19920;-72
2022/01/10 10:50:34;;;;;;;;;;;3.70;99.90;;;;;;5086794;28;19920;-73
2022/01/10 10:53:04;;;;;;;;;;;3.80;99.90;;;;;;5103368;28;19973;-72
2022/01/10 10:55:31;;;;;;;;;;;3.90;99.90;;;;;;5100620;28;19920;-72
2022/01/10 10:58:00;;;;;;;;;;;4.00;99.90;;;;;;5102621;28;19932;-73
2022/01/10 11:00:26;;;;;;;;;;;4.00;99.90;;;;;;5102834;28;19951;-73
2022/01/10 11:02:53;;;;;;;;;;;4.10;99.90;;;;;;5100447;28;19926;-72
2022/01/10 11:05:44;;;;;;;;;;;4.20;99.90;;;;;;5104951;28;19926;-73
2022/01/10 11:08:13;;;;;;;;;;;4.30;99.90;;;;;;5092389;28;20262;-72
2022/01/10 11:10:39;;;;;;;;;;;4.40;99.90;;;;;;5110830;28;19919;-72
2022/01/10 11:13:08;;;;;;;;;;;4.50;99.90;;;;;;5088256;28;20119;-72
2022/01/10 11:15:38;;;;;;;;;;;4.70;99.90;;;;;;5086977;28;19931;-72
2022/01/10 11:18:05;;;;;;;;;;;4.90;99.90;;;;;;5088994;28;20196;-72
2022/01/10 11:20:40;;;;;;;;;;;5.00;99.90;;;;;;5105427;28;19920;-72
2022/01/10 11:23:08;;;;;;;;;;;5.10;99.90;;;;;;5104591;28;20131;-72
2022/01/10 11:25:36;;;;;;;;;;;5.00;99.90;;;;;;5107357;28;19924;-72
2022/01/10 11:28:05;;;;;;;;;;;4.90;99.90;;;;;;5105654;28;19956;-72
2022/01/10 11:30:34;;;;;;;;;;;4.80;99.90;;;;;;5106172;28;19927;-72
2022/01/10 11:33:04;;;;;;;;;;;4.60;99.90;;;;;;5104168;28;19920;-72
2022/01/10 11:35:31;;;;;;;;;;;4.60;99.90;;;;;;5106974;28;19924;-72
2022/01/10 11:37:58;;;;;;;;;;;4.50;99.90;;;;;;5110888;28;19927;-72
2022/01/10 11:40:25;;;;;;;;;;;4.50;99.90;;;;;;5106086;28;19926;-72
2022/01/10 11:42:56;;;;;;;;;;;4.40;99.90;;;;;;5103616;28;20212;-73
2022/01/10 11:45:23;;;;;;;;;;;4.30;99.90;;;;;;5133510;22;19948;-68
2022/01/10 11:48:15;;;;;;;;;;;4.30;99.90;;;;;;5066078;28;19927;-69
2022/01/10 11:50:42;;;;;;;;;;;4.30;99.90;;;;;;5066264;28;19928;-68
2022/01/10 11:53:09;;;;;;;;;;;4.40;99.90;;;;;;5054874;28;19921;-68
2022/01/10 11:55:39;;;;;;;;;;;4.40;99.90;;;;;;5041608;28;19937;-69
2022/01/10 11:58:06;;;;;;;;;;;4.30;99.90;;;;;;5038631;28;19928;-69
2022/01/10 12:00:37;;;;;;;;;;;4.30;99.90;;;;;;5046155;28;19928;-68
2022/01/10 12:03:04;;;;;;;;;;;4.30;99.90;;;;;;5046169;28;19928;-68
2022/01/10 12:05:32;;;;;;;;;;;4.30;99.90;;;;;;5040642;28;20116;-69
2022/01/10 12:07:59;;;;;;;;;;;4.30;99.90;;;;;;5039385;28;20116;-69
2022/01/10 12:10:26;;;;;;;;;;;4.30;99.90;;;;;;5046396;28;19921;-68
2022/01/10 12:13:00;;;;;;;;;;;4.20;99.90;;;;;;5046310;28;19988;-69
2022/01/10 12:15:30;;;;;;;;;;;4.20;99.90;;;;;;5045866;28;19963;-68
2022/01/10 12:17:57;;;;;;;;;;;4.20;99.90;;;;;;5035453;28;19944;-69
2022/01/10 12:20:24;;;;;;;;;;;4.20;99.90;;;;;;5039008;28;19925;-68
2022/01/10 12:22:53;;;;;;;;;;;4.20;99.90;;;;;;5045914;28;19928;-71
2022/01/10 12:25:20;;;;;;;;;;;4.20;99.90;;;;;;5044858;28;20105;-69
2022/01/10 12:27:48;;;;;;;;;;;4.20;99.90;;;;;;5044865;28;19925;-69
2022/01/10 12:30:15;;;;;;;;;;;4.10;99.90;;;;;;5044416;28;20155;-69
2022/01/10 12:32:41;;;;;;;;;;;4.00;99.90;;;;;;5045112;28;19921;-69
2022/01/10 12:35:09;;;;;;;;;;;4.00;99.90;;;;;;5044894;28;19921;-69
2022/01/10 12:37:36;;;;;;;;;;;4.00;99.90;;;;;;5044461;28;19921;-68
2022/01/10 12:40:05;;;;;;;;;;;4.00;99.90;;;;;;5045758;28;20112;-68
2022/01/10 12:42:31;;;;;;;;;;;3.90;99.90;;;;;;5045361;28;20230;-68
2022/01/10 12:44:58;;;;;;;;;;;3.90;99.90;;;;;;5045373;28;19921;-68
2022/01/10 12:47:25;;;;;;;;;;;3.90;99.90;;;;;;5044296;28;19977;-69
2022/01/10 12:49:52;;;;;;;;;;;3.90;99.90;;;;;;5045640;28;19921;-69
2022/01/10 12:52:20;;;;;;;;;;;3.90;99.90;;;;;;5045129;28;19921;-67
2022/01/10 12:54:47;;;;;;;;;;;3.90;99.90;;;;;;5047127;28;19921;-67
2022/01/10 12:57:15;;;;;;;;;;;3.80;99.90;;;;;;5045259;28;19943;-68
2022/01/10 12:59:42;;;;;;;;;;;3.80;99.90;;;;;;5045087;28;19921;-68
2022/01/10 13:02:09;;;;;;;;;;;3.80;99.90;;;;;;5045174;28;19921;-68
2022/01/10 13:04:37;;;;;;;;;;;3.80;99.90;;;;;;5044894;28;19921;-68
2022/01/10 13:07:05;;;;;;;;;;;3.80;99.90;;;;;;5044559;28;19933;-68
2022/01/10 13:09:32;;;;;;;;;;;3.80;99.90;;;;;;5044719;28;19984;-68
2022/01/10 13:12:12;;;;;;;;;;;3.90;99.90;;;;;;5044897;28;19957;-68
2022/01/10 13:14:41;;;;;;;;;;;3.90;99.90;;;;;;5025015;28;19947;-68
2022/01/10 13:17:08;;;;;;;;;;;3.90;99.90;;;;;;5024776;28;19928;-68
2022/01/10 13:19:36;;;;;;;;;;;3.80;99.90;;;;;;5024804;28;19957;-68
2022/01/10 13:22:05;;;;;;;;;;;3.80;99.90;;;;;;5024689;28;20226;-68
2022/01/10 13:24:32;;;;;;;;;;;3.80;99.90;;;;;;5024788;28;19921;-68
2022/01/10 13:27:01;;;;;;;;;;;3.70;99.90;;;;;;5039803;28;19927;-69
2022/01/10 13:29:32;;;;;;;;;;;3.70;99.90;;;;;;5044270;28;19928;-68
2022/01/10 13:32:13;;;;;;;;;;;3.80;99.90;;;;;;5043734;28;20198;-68
2022/01/10 13:34:40;;;;;;;;;;;3.80;99.90;;;;;;5043719;28;19929;-68
2022/01/10 13:37:07;;;;;;;;;;;3.80;99.90;;;;;;5042936;28;19928;-68
2022/01/10 13:39:33;;;;;;;;;;;3.80;99.90;;;;;;5044529;28;19928;-68
2022/01/10 13:42:00;;;;;;;;;;;3.80;99.90;;;;;;5044159;28;19921;-69
2022/01/10 13:44:27;;;;;;;;;;;3.70;99.90;;;;;;5043924;28;19921;-68
2022/01/10 13:47:00;;;;;;;;;;;3.70;99.90;;;;;;5044133;28;19921;-68
2022/01/10 13:49:28;;;;;;;;;;;3.70;99.90;;;;;;5044356;28;19925;-67
2022/01/10 13:52:08;;;;;;;;;;;3.80;99.90;;;;;;5042903;28;19921;-68
2022/01/10 13:54:35;;;;;;;;;;;3.70;99.90;;;;;;5030168;28;20231;-68
2022/01/10 13:57:14;;;;;;;;;;;3.80;99.90;;;;;;5029454;28;20283;-68
2022/01/10 13:59:40;;;;;;;;;;;3.80;99.90;;;;;;5033393;28;19925;-68
2022/01/10 14:02:09;;;;;;;;;;;3.80;99.90;;;;;;5026634;28;19922;-68
2022/01/10 14:04:37;;;;;;;;;;;3.80;99.90;;;;;;5035548;28;19921;-68
2022/01/10 14:07:07;;;;;;;;;;;3.80;99.90;;;;;;5032830;28;20116;-68
2022/01/10 14:09:34;;;;;;;;;;;3.80;99.90;;;;;;5024317;28;19928;-68
2022/01/10 14:12:00;;;;;;;;;;;3.80;99.90;;;;;;5026203;28;20204;-68
2022/01/10 14:14:28;;;;;;;;;;;3.80;99.90;;;;;;5042828;28;19921;-68
2022/01/10 14:16:55;;;;;;;;;;;3.80;99.90;;;;;;5043341;28;20226;-68
2022/01/10 14:19:22;;;;;;;;;;;3.80;99.90;;;;;;5042121;28;20216;-68
2022/01/10 14:21:50;;;;;;;;;;;3.80;99.90;;;;;;5043794;28;19928;-68
2022/01/10 14:24:19;;;;;;;;;;;3.80;99.90;;;;;;5043492;28;19925;-68
2022/01/10 14:26:48;;;;;;;;;;;3.80;99.90;;;;;;5042612;28;19921;-69
2022/01/10 14:29:15;;;;;;;;;;;3.80;99.90;;;;;;5035981;28;19928;-69
2022/01/10 14:31:42;;;;;;;;;;;3.80;99.90;;;;;;5029816;28;19925;-69
2022/01/10 14:34:09;;;;;;;;;;;3.80;99.90;;;;;;5042199;28;19928;-68
2022/01/10 14:36:36;;;;;;;;;;;3.70;99.90;;;;;;5038561;28;19984;-68